Latest Weather Observations for Parafield

IDS60901

Issued at 4:21 pm CST Friday 23 August 2019 (issued every 10 minutes, with the page automatically refreshed every 10 minutes)

About weather observations | Map of Adelaide area stations | Latest observations for Adelaide area | Other Formats
Station Details ID: 023013 Name: PARAFIELD AIRPORT Lat: -34.80 Lon: 138.63 Height: 9.5 m
Data from the previous 72 hours. | See also: Recent months at Parafield
Date/Time
CST
Temp
°C
App
Temp
°C
Dew
Point
°C
Rel
Hum
%
Delta-T
°C
Wind Press
QNH
hPa
Press
MSL
hPa
Rain since
9am
mm
Dir  Spd
km/h
Gust
km/h
Spd
kts
Gust
kts
23/04:00pm 18.2 13.9 7.9 51 5.3 WNW 20 30 11 16 1019.5 1019.6 0.0
23/03:30pm 18.3 13.5 7.4 49 5.5 WNW 22 32 12 17 1019.6 1019.7 0.0
23/03:00pm 18.4 14.2 8.1 51 5.3 NW 20 30 11 16 1019.9 1020.0 0.0
23/02:30pm 18.7 13.3 6.2 44 6.2 N 24 33 13 18 1020.1 1020.2 0.0
23/02:00pm 18.9 14.2 7.7 48 5.7 NNW 22 32 12 17 1020.2 1020.3 0.0
23/01:30pm 18.2 12.9 7.0 48 5.6 NNW 24 32 13 17 1020.6 1020.7 0.0
23/01:00pm 17.6 12.7 8.5 55 4.7 N 24 33 13 18 1021.3 1021.4 0.0
23/12:30pm 17.5 13.1 7.5 52 5.0 NNW 20 30 11 16 1022.2 1022.2 0.0
23/12:00pm 17.1 12.4 7.7 54 4.7 N 22 28 12 15 1023.1 1023.1 0.0
23/11:30am 16.3 11.5 7.5 56 4.4 N 22 32 12 17 1023.6 1023.6 0.0
23/11:00am 15.9 11.5 8.9 63 3.6 N 22 32 12 17 1024.1 1024.1 0.0
23/10:30am 15.1 10.4 7.6 61 3.7 N 22 30 12 16 1024.4 1024.4 0.0
23/10:00am 14.2 9.4 7.5 64 3.3 NNE 22 28 12 15 1024.5 1024.5 0.0
23/09:30am 12.9 7.4 6.0 63 3.2 NNE 24 32 13 17 1024.9 1024.9 0.0
23/09:00am 12.3 7.6 7.6 73 2.3 NNE 22 30 12 16 1025.5 1025.5 0.0
23/08:30am 11.1 7.0 6.3 72 2.2 N 17 22 9 12 1025.7 1025.7 0.0
23/08:00am 10.0 7.0 6.2 77 1.8 NNW 11 17 6 9 1025.8 1025.8 0.0
23/07:30am 8.1 5.4 5.6 84 1.1 NNE 9 11 5 6 1025.7 1025.7 0.0
23/07:00am 7.4 4.0 5.9 90 0.7 NNE 13 15 7 8 1025.6 1025.6 0.0
23/06:30am 7.0 3.2 5.8 92 0.5 NE 15 19 8 10 1025.3 1025.3 0.0
23/06:00am 6.6 3.1 5.4 92 0.5 NE 13 15 7 8 1025.1 1025.1 0.0
23/05:30am 6.9 3.1 5.7 92 0.5 NE 15 17 8 9 1025.0 1025.0 0.0
23/05:00am 7.0 3.2 5.9 93 0.5 NE 15 17 8 9 1025.0 1025.0 0.0
23/04:30am 6.7 2.9 5.8 94 0.4 NE 15 17 8 9 1025.1 1025.1 0.0
23/04:00am 5.8 2.2 4.8 93 0.4 NE 13 13 7 7 1025.1 1025.1 0.0
23/03:30am 6.6 3.2 5.9 95 0.3 NNE 13 17 7 9 1025.5 1025.5 0.0
23/03:00am 5.9 2.4 5.3 96 0.3 N 13 13 7 7 1026.0 1026.0 0.0
23/02:30am 6.7 4.5 6.3 97 0.2 NNE 7 7 4 4 1026.2 1026.2 0.0
23/02:00am 6.2 3.8 4.5 89 0.7 NE 6 7 3 4 1026.5 1026.5 0.0
23/01:30am 7.4 5.3 5.7 89 0.8 NE 6 7 3 4 1026.9 1026.9 0.0
23/01:00am 8.0 6.9 5.1 82 1.3 CALM 0 0 0 0 1027.3 1027.3 0.0
23/12:30am 8.4 7.4 5.7 83 1.2 CALM 0 0 0 0 1027.5 1027.5 0.0
23/12:00am 9.7 8.8 6.2 79 1.6 CALM 0 0 0 0 1028.0 1028.0 0.0
 
Date/Time
CST
Temp
°C
App
Temp
°C
Dew
Point
°C
Rel
Hum
%
Delta-T
°C
Wind Press
QNH
hPa
Press
MSL
hPa
Rain since
9am
mm
Dir  Spd
km/h
Gust
km/h
Spd
kts
Gust
kts
22/11:30pm 10.1 7.8 5.9 75 1.9 SE 7 11 4 6 1028.0 1028.0 0.0
22/11:00pm 10.4 9.5 6.0 74 2.0 CALM 0 0 0 0 1028.3 1028.3 0.0
22/10:30pm 10.7 8.0 5.5 70 2.4 ESE 9 13 5 7 1028.5 1028.5 0.0
22/10:00pm 11.0 7.1 5.3 68 2.6 ESE 15 20 8 11 1028.4 1028.4 0.0
22/09:30pm 11.0 7.1 5.5 69 2.5 ESE 15 20 8 11 1028.6 1028.6 0.0
22/09:00pm 10.9 8.2 5.7 70 2.4 ESE 9 15 5 8 1028.5 1028.5 0.0
22/08:30pm 11.2 8.2 6.1 71 2.4 SSE 11 13 6 7 1028.5 1028.5 0.0
22/08:00pm 11.7 8.8 6.4 70 2.5 SE 11 15 6 8 1028.5 1028.5 0.0
22/07:30pm 11.8 9.3 6.7 71 2.4 SSE 9 13 5 7 1028.5 1028.5 0.0
22/07:00pm 12.2 9.5 7.3 72 2.4 S 11 15 6 8 1028.4 1028.4 0.0
22/06:30pm 12.3 9.2 7.2 71 2.4 SSW 13 15 7 8 1028.3 1028.3 0.0
22/06:00pm 12.7 9.6 7.2 69 2.6 SSW 13 15 7 8 1028.2 1028.2 0.0
22/05:30pm 13.0 9.8 7.0 67 2.9 SW 13 19 7 10 1028.2 1028.2 0.0
22/05:00pm 13.4 9.9 7.4 67 2.9 SW 15 19 8 10 1028.2 1028.2 0.0
22/04:30pm 13.6 10.3 8.0 69 2.8 SW 15 19 8 10 1028.0 1028.0 0.0
22/04:00pm 13.5 9.7 7.5 67 2.9 SSW 17 20 9 11 1028.2 1028.2 0.0
22/03:30pm 14.1 10.6 8.7 70 2.7 SSW 17 24 9 13 1028.3 1028.3 0.0
22/03:00pm 13.8 9.7 8.6 71 2.6 SW 20 24 11 13 1028.4 1028.4 0.0
22/02:30pm 13.8 9.6 8.4 70 2.7 SW 20 30 11 16 1028.5 1028.5 0.0
22/02:00pm 14.3 10.8 8.7 69 2.8 SW 17 24 9 13 1028.6 1028.6 0.0
22/01:30pm 14.4 10.7 9.6 73 2.5 SW 19 26 10 14 1028.7 1028.7 0.0
22/01:00pm 14.3 10.4 8.5 68 2.9 SW 19 24 10 13 1028.8 1028.8 0.0
22/12:30pm 14.5 11.4 8.7 68 2.9 SSW 15 20 8 11 1029.1 1029.1 0.0
22/12:00pm 14.0 10.1 8.6 70 2.7 SSW 19 24 10 13 1029.4 1029.4 0.0
22/11:30am 14.1 11.1 9.3 73 2.4 SW 15 20 8 11 1029.7 1029.7 0.0
22/11:00am 13.9 10.8 8.7 71 2.6 SSW 15 20 8 11 1029.8 1029.8 0.0
22/10:30am 13.9 10.4 8.9 72 2.5 SW 17 24 9 13 1029.9 1029.9 0.0
22/10:00am 13.3 10.1 8.6 73 2.4 SSW 15 20 8 11 1029.9 1029.9 0.0
22/09:30am 13.3 10.6 8.8 74 2.2 SSW 13 17 7 9 1030.0 1030.0 0.0
22/09:00am 12.7 10.0 8.8 77 1.9 SSW 13 20 7 11 1029.8 1029.8 0.0
22/08:30am 13.2 11.6 10.2 82 1.5 S 9 13 5 7 1029.4 1029.4 0.0
22/08:00am 12.2 12.1 9.6 84 1.3 CALM 0 0 0 0 1029.3 1029.3 0.0
22/07:30am 11.1 10.9 10.5 96 0.3 SSE 2 7 1 4 1029.2 1029.2 0.0
22/07:00am 10.9 9.6 9.8 93 0.6 S 7 11 4 6 1028.7 1028.7 0.0
22/06:30am 10.2 8.7 9.0 92 0.6 ESE 7 9 4 5 1028.6 1028.6 0.0
22/06:00am 9.7 7.9 7.3 85 1.1 SW 6 9 3 5 1028.3 1028.3 0.0
22/05:30am 9.8 7.7 6.7 81 1.4 SW 7 11 4 6 1028.2 1028.2 0.0
22/05:00am 11.3 7.8 7.0 75 2.0 SW 15 22 8 12 1028.1 1028.1 0.0
22/04:30am 12.4 7.9 6.9 69 2.6 WSW 20 32 11 17 1028.0 1028.0 0.0
22/04:00am 12.5 7.8 6.1 65 3.0 WSW 20 30 11 16 1028.0 1028.0 0.0
22/03:30am 12.5 8.8 9.5 82 1.5 WSW 19 26 10 14 1028.0 1028.0 0.0
22/03:00am 12.3 9.8 10.9 91 0.7 WSW 15 20 8 11 1028.1 1028.1 0.0
22/02:30am 12.3 9.4 10.9 91 0.7 WSW 17 20 9 11 1028.4 1028.4 0.0
22/02:00am 12.4 10.0 11.5 94 0.5 WSW 15 19 8 10 1028.6 1028.6 0.0
22/01:30am 12.4 9.2 11.3 93 0.6 WSW 19 24 10 13 1028.8 1028.8 0.0
22/01:00am 11.3 8.7 10.8 97 0.3 SW 15 19 8 10 1028.8 1028.8 0.0
22/12:30am 12.3 9.6 11.8 97 0.3 SW 17 22 9 12 1028.9 1028.9 0.0
22/12:00am 11.6 9.5 11.1 97 0.3 W 13 15 7 8 1029.0 1029.0 0.0
 
Date/Time
CST
Temp
°C
App
Temp
°C
Dew
Point
°C
Rel
Hum
%
Delta-T
°C
Wind Press
QNH
hPa
Press
MSL
hPa
Rain since
9am
mm
Dir  Spd
km/h
Gust
km/h
Spd
kts
Gust
kts
21/11:30pm 12.4 8.8 10.0 85 1.2 SW 19 28 10 15 1029.0 1029.0 0.0
21/11:07pm 12.8 9.8 12.0 95 0.4 SW 19 26 10 14 1029.1 1029.1 0.0
21/11:00pm 12.9 9.8 12.3 96 0.3 SW 20 28 11 15 1029.1 1029.1 0.0
21/10:30pm 12.8 9.7 12.3 97 0.3 SW 20 30 11 16 1029.3 1029.3 0.0
21/10:29pm 12.8 9.7 12.3 97 0.3 SW 20 30 11 16 1029.3 1029.3 0.0
21/10:05pm 12.8 9.7 12.2 96 0.3 SW 20 28 11 15 1029.4 1029.4 0.0
21/10:00pm 12.8 9.7 12.2 96 0.3 SW 20 28 11 15 1029.4 1029.4 0.0
21/09:33pm 12.8 7.6 11.7 93 0.6 SW 30 48 16 26 1029.3 1029.3 0.0
21/09:30pm 12.9 7.4 11.8 93 0.6 SW 32 48 17 26 1029.2 1029.2 0.0
21/09:25pm 12.9 7.7 11.6 92 0.7 SW 30 48 16 26 1029.1 1029.1 0.0
21/09:24pm 12.9 8.1 11.6 92 0.7 SW 28 44 15 24 1029.2 1029.2 0.0
21/09:00pm 12.9 10.0 12.3 96 0.3 SW 19 26 10 14 1029.0 1029.0 0.0
21/08:30pm 13.0 10.4 12.1 94 0.5 SW 17 22 9 12 1029.0 1029.0 0.0
21/08:12pm 13.1 10.5 12.0 93 0.6 SW 17 22 9 12 1028.9 1028.9 0.0
21/08:00pm 13.2 10.2 11.9 92 0.7 SW 19 26 10 14 1028.9 1028.9 0.0
21/07:30pm 13.3 11.0 11.7 90 0.8 SW 15 22 8 12 1028.8 1028.8 0.0
21/07:00pm 13.5 10.8 11.7 89 1.0 SW 17 26 9 14 1028.9 1028.9 0.0
21/06:30pm 13.7 10.6 11.6 87 1.1 SW 19 26 10 14 1028.8 1028.8 0.0
21/06:00pm 14.1 10.9 12.0 87 1.1 SW 20 28 11 15 1028.5 1028.5 0.0
21/05:30pm 14.5 11.2 11.7 83 1.5 SW 20 32 11 17 1028.3 1028.3 0.0
21/05:00pm 15.0 11.1 12.0 82 1.6 SW 24 33 13 18 1028.1 1028.1 0.0
21/04:30pm 16.4 13.1 12.8 79 2.0 SW 22 32 12 17 1028.1 1028.1 0.0
21/04:00pm 16.0 12.1 12.0 77 2.2 SW 24 35 13 19 1028.0 1028.0 0.0
21/03:30pm 15.7 11.4 12.1 79 1.9 SW 26 33 14 18 1028.2 1028.2 0.0
21/03:00pm 16.0 11.8 12.4 79 2.0 SW 26 35 14 19 1028.3 1028.3 0.0
21/02:30pm 15.7 12.4 12.8 83 1.6 SW 22 32 12 17 1028.3 1028.3 0.0
21/02:29pm 15.7 12.4 12.8 83 1.6 SW 22 32 12 17 1028.3 1028.3 0.0
21/02:00pm 15.3 12.0 12.8 85 1.4 SW 22 33 12 18 1028.4 1028.4 0.0
21/01:52pm 15.5 11.7 12.3 81 1.7 SW 24 32 13 17 1028.4 1028.4 0.0
21/01:30pm 15.7 11.9 12.3 80 1.8 WSW 24 33 13 18 1028.5 1028.5 0.0
21/01:00pm 15.7 11.5 12.3 80 1.9 WSW 26 37 14 20 1028.5 1028.5 0.0
21/12:57pm 15.4 11.0 11.8 79 1.9 WSW 26 37 14 20 1028.5 1028.5 0.0
21/12:30pm 15.1 11.4 12.8 86 1.3 WSW 24 33 13 18 1029.0 1029.0 0.0
21/12:00pm 14.8 11.6 13.2 90 0.9 WSW 22 28 12 15 1029.6 1029.6 0.0
21/11:55am 14.9 12.1 13.3 90 0.9 WSW 20 28 11 15 1029.6 1029.6 0.0
21/11:30am 15.0 12.4 13.9 93 0.6 WSW 20 26 11 14 1029.9 1029.9 0.0
21/11:00am 14.2 11.9 13.1 93 0.6 W 17 24 9 13 1030.0 1030.0 0.0
21/10:31am 13.8 11.7 13.5 98 0.2 WSW 17 20 9 11 1030.2 1030.2 0.0
21/10:30am 13.7 11.5 13.4 98 0.2 WSW 17 20 9 11 1030.2 1030.2 0.0
21/10:00am 13.4 11.2 13.4 100 0.0 W 17 22 9 12 1030.2 1030.2 0.0
21/09:30am 13.2 11.0 13.2 100 0.0 W 17 24 9 13 1030.1 1030.1 0.0
21/09:08am 13.0 11.1 13.0 100 0.0 W 15 20 8 11 1030.0 1030.0 0.0
21/09:00am 12.8 10.4 12.8 100 0.0 WNW 17 20 9 11 1030.0 1030.0 1.0
21/08:53am 12.7 10.3 12.7 100 0.0 WNW 17 20 9 11 1030.1 1030.1 1.0
21/08:30am 12.6 11.3 12.6 100 0.0 W 11 17 6 9 1029.9 1029.9 0.8
21/08:24am 12.7 11.1 12.7 100 0.0 WNW 13 17 7 9 1029.9 1029.9 0.8
21/08:18am 12.5 10.8 12.5 100 0.0 W 13 19 7 10 1029.9 1029.9 0.8
21/08:00am 12.4 10.3 12.4 100 0.0 WNW 15 19 8 10 1029.5 1029.5 0.8
21/07:51am 12.4 10.3 12.4 100 0.0 WNW 15 19 8 10 1029.4 1029.4 0.8
21/07:30am 12.3 10.6 12.3 100 0.0 W 13 19 7 10 1029.2 1029.2 0.6
21/07:24am 12.3 10.6 12.3 100 0.0 W 13 17 7 9 1029.2 1029.2 0.6
21/07:00am 12.2 10.0 12.2 100 0.0 WNW 15 20 8 11 1029.0 1029.0 0.4
21/06:30am 12.2 10.4 12.2 100 0.0 WNW 13 17 7 9 1028.7 1028.7 0.4
21/06:00am 12.1 10.3 12.1 100 0.0 NW 13 19 7 10 1028.6 1028.6 0.4
21/05:30am 12.0 10.9 12.0 100 0.0 WNW 9 13 5 7 1028.6 1028.6 0.4
21/05:18am 12.0 10.5 12.0 100 0.0 WNW 11 17 6 9 1028.6 1028.6 0.4
21/05:00am 12.1 10.6 11.9 99 0.1 WNW 11 15 6 8 1028.6 1028.6 0.4
21/04:30am 11.9 10.4 11.9 100 0.0 WNW 11 17 6 9 1028.5 1028.5 0.4
21/04:00am 11.8 10.7 11.8 100 0.0 NW 9 11 5 6 1028.7 1028.7 0.4
21/03:30am 11.9 10.0 11.9 100 0.0 WNW 13 17 7 9 1029.0 1029.0 0.4
21/03:00am 11.8 10.3 11.8 100 0.0 NW 11 17 6 9 1029.2 1029.2 0.4
21/02:30am 11.7 10.5 11.5 99 0.1 WNW 9 13 5 7 1029.5 1029.5 0.4
21/02:00am 11.2 11.2 11.0 99 0.1 WNW 2 7 1 4 1029.7 1029.7 0.4
21/01:30am 11.1 10.0 10.8 98 0.2 WNW 7 11 4 6 1029.8 1029.8 0.4
21/01:00am 10.7 9.1 10.1 96 0.3 WNW 9 11 5 6 1029.8 1029.8 0.4
21/12:30am 11.4 9.9 10.5 94 0.5 WNW 9 11 5 6 1029.9 1029.9 0.4
21/12:00am 11.8 10.4 10.9 94 0.5 W 9 11 5 6 1030.0 1030.0 0.4
 
Date/Time
CST
Temp
°C
App
Temp
°C
Dew
Point
°C
Rel
Hum
%
Delta-T
°C
Wind Press
QNH
hPa
Press
MSL
hPa
Rain since
9am
mm
Dir  Spd
km/h
Gust
km/h
Spd
kts
Gust
kts
20/11:30pm 12.2 9.9 10.6 90 0.8 W 13 17 7 9 1030.1 1030.1 0.4
20/11:00pm 12.3 9.8 11.0 92 0.7 W 15 22 8 12 1030.4 1030.4 0.4
20/10:30pm 12.3 9.5 11.2 93 0.6 W 17 20 9 11 1030.4 1030.4 0.4
20/10:00pm 12.3 9.5 11.2 93 0.6 W 17 20 9 11 1030.7 1030.7 0.4
20/09:30pm 12.4 9.2 11.3 93 0.6 W 19 28 10 15 1030.7 1030.7 0.4
20/09:00pm 12.3 9.0 11.7 96 0.3 W 20 28 11 15 1030.7 1030.7 0.4
20/08:30pm 12.2 9.6 11.9 98 0.2 W 17 24 9 13 1030.8 1030.8 0.4
20/08:00pm 12.0 9.3 11.8 99 0.1 W 17 20 9 11 1030.9 1030.9 0.4
20/07:47pm 12.0 8.7 11.7 98 0.2 WSW 20 26 11 14 1030.8 1030.8 0.4
20/07:44pm 11.9 8.8 11.6 98 0.2 WSW 19 26 10 14 1030.8 1030.8 0.4
20/07:31pm 12.0 9.0 12.0 100 0.0 W 19 26 10 14 1030.7 1030.7 0.4
20/07:30pm 12.1 9.1 12.1 100 0.0 W 19 26 10 14 1030.8 1030.8 0.4
20/07:15pm 12.2 9.3 12.2 100 0.0 W 19 26 10 14 1030.8 1030.8 0.4
20/07:00pm 12.0 9.0 12.0 100 0.0 W 19 26 10 14 1030.7 1030.7 0.4
20/06:58pm 11.9 9.3 11.9 100 0.0 W 17 22 9 12 1030.7 1030.7 0.4
20/06:55pm 11.9 8.9 11.9 100 0.0 WSW 19 24 10 13 1030.7 1030.7 0.4
20/06:30pm 11.9 7.6 11.9 100 0.0 W 26 39 14 21 1030.7 1030.7 0.2
20/06:20pm 12.0 6.5 11.8 99 0.1 W 32 43 17 23 1030.6 1030.6 0.2
20/06:14pm 12.3 7.5 11.7 96 0.3 W 28 43 15 23 1030.6 1030.6 0.2
20/06:00pm 12.8 8.7 10.2 84 1.3 W 22 32 12 17 1030.5 1030.5 0.2
20/05:30pm 13.1 8.9 9.9 81 1.6 W 22 30 12 16 1030.4 1030.4 0.2
20/05:00pm 13.3 8.7 9.7 79 1.8 WNW 24 35 13 19 1030.4 1030.4 0.2
20/04:30pm 13.7 8.5 9.0 73 2.4 WNW 26 43 14 23 1030.4 1030.4 0.2

Latest Capital City Observations: Canberra | Sydney | Melbourne | Brisbane | Adelaide | Perth | Hobart | Darwin

Other formats

Comma delimited format used in spreadsheet applications
http://www.bom.gov.au/fwo/IDS60901/IDS60901.95677.axf

JavaScript Object Notation format (JSON) in row-major order
http://www.bom.gov.au/fwo/IDS60901/IDS60901.95677.json

Data quality

Most of these data are generated automatically and are frequently updated. Quality checks on data are not normally performed. It is possible for incorrect values to appear. Refer to information at About Latest Weather Observations and please check the disclaimer before using these data.